Time;durP1;ratioP1;P1;durP2;ratioP2;P2;SDS_P1;SDS_P2;PMS_P1;PMS_P2;Temp;Humidity;BMP_temperature;BMP_pressure;BME280_temperature;BME280_humidity;BME280_pressure;Samples;Min_cycle;Max_cycle;Signal;HPM_P1;HPM_P2
2024/03/07 00:00:48;;;;;;;;;;;19.90;54.40;;;;;;1505439;78;652;-71
2024/03/07 00:02:50;;;;;;;;;;;19.90;54.40;;;;;;1514728;77;1163;-73
2024/03/07 00:04:52;;;;;;;;;;;19.90;54.50;;;;;;1509264;78;647;-74
2024/03/07 00:06:54;;;;;;;;;;;19.90;54.50;;;;;;1505645;78;813;-74
2024/03/07 00:08:56;;;;;;;;;;;19.90;54.50;;;;;;1518140;78;1543;-72
2024/03/07 00:10:58;;;;;;;;;;;19.90;54.60;;;;;;1512388;78;747;-72
2024/03/07 00:13:00;;;;;;;;;;;19.90;54.60;;;;;;1510254;78;1164;-73
2024/03/07 00:15:03;;;;;;;;;;;19.90;54.60;;;;;;1505251;78;1924;-71
2024/03/07 00:17:05;;;;;;;;;;;19.90;54.60;;;;;;1509523;78;753;-72
2024/03/07 00:19:06;;;;;;;;;;;19.90;54.60;;;;;;1506016;78;765;-69
2024/03/07 00:21:08;;;;;;;;;;;19.90;54.60;;;;;;1511956;78;1150;-73
2024/03/07 00:23:10;;;;;;;;;;;19.90;54.70;;;;;;1506270;78;1479;-75
2024/03/07 00:25:14;;;;;;;;;;;19.90;54.70;;;;;;1506880;78;807;-73
2024/03/07 00:27:16;;;;;;;;;;;19.90;54.70;;;;;;1505604;78;703;-74
2024/03/07 00:29:19;;;;;;;;;;;19.90;54.80;;;;;;1510476;78;691;-73
2024/03/07 00:31:21;;;;;;;;;;;19.90;54.80;;;;;;1503293;78;1142;-70
2024/03/07 00:33:23;;;;;;;;;;;19.90;54.70;;;;;;1506176;78;675;-72
2024/03/07 00:35:25;;;;;;;;;;;19.90;54.80;;;;;;1501909;78;1910;-72
2024/03/07 00:37:27;;;;;;;;;;;19.90;54.80;;;;;;1510875;78;1477;-73
2024/03/07 00:39:29;;;;;;;;;;;19.90;54.90;;;;;;1505357;77;720;-73
2024/03/07 00:41:31;;;;;;;;;;;19.90;54.90;;;;;;1513938;78;1158;-73
2024/03/07 00:43:33;;;;;;;;;;;19.90;55.00;;;;;;1507661;78;785;-73
2024/03/07 00:45:34;;;;;;;;;;;19.90;55.00;;;;;;1509548;78;636;-71
2024/03/07 00:47:38;;;;;;;;;;;19.90;55.00;;;;;;1516816;78;752;-73
2024/03/07 00:49:40;;;;;;;;;;;19.90;55.00;;;;;;1517933;77;750;-73
2024/03/07 00:51:41;;;;;;;;;;;19.90;55.00;;;;;;1509171;78;1592;-73
2024/03/07 00:53:43;;;;;;;;;;;19.90;55.20;;;;;;1510194;78;1937;-73
2024/03/07 00:55:45;;;;;;;;;;;19.90;55.30;;;;;;1521115;78;674;-72
2024/03/07 00:57:47;;;;;;;;;;;19.90;55.30;;;;;;1510747;78;614;-72
2024/03/07 00:59:49;;;;;;;;;;;19.90;55.40;;;;;;1505517;78;777;-72
2024/03/07 01:01:51;;;;;;;;;;;19.90;55.50;;;;;;1506562;78;1157;-73
2024/03/07 01:03:53;;;;;;;;;;;19.90;55.50;;;;;;1510834;78;673;-73
2024/03/07 01:05:55;;;;;;;;;;;19.90;55.60;;;;;;1508878;78;558;-72
2024/03/07 01:07:56;;;;;;;;;;;19.90;55.50;;;;;;1519817;78;756;-73
2024/03/07 01:10:00;;;;;;;;;;;19.90;55.50;;;;;;1509812;78;656;-73
2024/03/07 01:12:04;;;;;;;;;;;19.90;55.70;;;;;;1512179;77;1672;-70
2024/03/07 01:14:05;;;;;;;;;;;19.90;55.70;;;;;;1509188;78;1931;-71
2024/03/07 01:16:07;;;;;;;;;;;19.90;55.80;;;;;;1505518;78;843;-71
2024/03/07 01:18:09;;;;;;;;;;;19.90;55.90;;;;;;1513439;77;1544;-73
2024/03/07 01:20:11;;;;;;;;;;;19.90;55.90;;;;;;1500348;78;732;-73
2024/03/07 01:22:13;;;;;;;;;;;20.00;56.00;;;;;;1503033;78;1137;-75
2024/03/07 01:24:17;;;;;;;;;;;19.90;56.00;;;;;;1508963;78;666;-73
2024/03/07 01:26:18;;;;;;;;;;;19.90;56.20;;;;;;1512331;78;1682;-72
2024/03/07 01:28:22;;;;;;;;;;;19.90;56.30;;;;;;1511917;78;704;-73
2024/03/07 01:30:25;;;;;;;;;;;19.90;56.40;;;;;;1502741;78;691;-71
2024/03/07 01:32:27;;;;;;;;;;;20.00;56.40;;;;;;1506730;78;1478;-73
2024/03/07 01:34:28;;;;;;;;;;;20.00;56.50;;;;;;1503283;78;1918;-74
2024/03/07 01:36:30;;;;;;;;;;;19.90;56.50;;;;;;1507368;78;791;-72
2024/03/07 01:38:32;;;;;;;;;;;20.00;56.80;;;;;;1511730;78;785;-72
2024/03/07 01:40:34;;;;;;;;;;;20.00;56.70;;;;;;1508827;78;693;-70
2024/03/07 01:42:36;;;;;;;;;;;20.00;56.80;;;;;;1511821;78;1139;-72
2024/03/07 01:44:40;;;;;;;;;;;20.00;56.80;;;;;;1513001;78;715;-72
2024/03/07 01:46:41;;;;;;;;;;;20.00;56.80;;;;;;1508829;78;1543;-71
2024/03/07 01:48:43;;;;;;;;;;;20.00;56.90;;;;;;1512084;78;746;-73
2024/03/07 01:50:45;;;;;;;;;;;19.90;56.90;;;;;;1522969;78;861;-73
2024/03/07 01:52:47;;;;;;;;;;;19.90;57.10;;;;;;1507863;78;1126;-71
2024/03/07 01:54:49;;;;;;;;;;;19.90;57.10;;;;;;1508236;78;1930;-74
2024/03/07 01:56:51;;;;;;;;;;;19.90;57.10;;;;;;1510929;78;839;-71
2024/03/07 01:58:53;;;;;;;;;;;19.90;56.90;;;;;;1518048;78;678;-70
2024/03/07 02:00:55;;;;;;;;;;;20.00;56.80;;;;;;1515044;78;1584;-72
2024/03/07 02:02:57;;;;;;;;;;;20.00;56.50;;;;;;1511043;78;1108;-70
2024/03/07 02:04:59;;;;;;;;;;;19.90;56.50;;;;;;1514716;77;749;-73
2024/03/07 02:07:01;;;;;;;;;;;19.90;56.30;;;;;;1514392;78;727;-72
2024/03/07 02:09:04;;;;;;;;;;;19.90;56.20;;;;;;1507081;78;696;-72
2024/03/07 02:11:06;;;;;;;;;;;20.00;56.20;;;;;;1519746;77;1189;-72
2024/03/07 02:13:08;;;;;;;;;;;20.00;56.10;;;;;;1519616;77;742;-73
2024/03/07 02:15:10;;;;;;;;;;;20.00;56.10;;;;;;1510660;77;1931;-71
2024/03/07 02:17:12;;;;;;;;;;;19.90;56.00;;;;;;1510345;78;769;-72
2024/03/07 02:19:15;;;;;;;;;;;20.00;56.00;;;;;;1511612;78;673;-72
2024/03/07 02:21:17;;;;;;;;;;;20.00;55.90;;;;;;1519958;77;1171;-71
2024/03/07 02:23:19;;;;;;;;;;;20.00;55.80;;;;;;1513110;78;752;-72
2024/03/07 02:25:21;;;;;;;;;;;20.00;55.80;;;;;;1498058;77;724;-71
2024/03/07 02:27:23;;;;;;;;;;;20.00;55.80;;;;;;1509505;78;733;-72
2024/03/07 02:29:25;;;;;;;;;;;20.00;55.90;;;;;;1515963;78;1557;-72
2024/03/07 02:31:34;;;;;;;;;;;20.00;55.80;;;;;;1508142;77;1138;-72
2024/03/07 02:33:32;;;;;;;;;;;19.90;55.70;;;;;;1504663;77;1647;-73
2024/03/07 02:35:38;;;;;;;;;;;20.00;55.80;;;;;;1507331;78;1924;-73
2024/03/07 02:37:37;;;;;;;;;;;20.00;55.70;;;;;;1503645;77;1243;-72
2024/03/07 02:39:39;;;;;;;;;;;20.00;55.70;;;;;;1515104;78;615;-75
2024/03/07 02:41:41;;;;;;;;;;;20.00;55.70;;;;;;1516453;77;1112;-73
2024/03/07 02:43:43;;;;;;;;;;;20.00;55.70;;;;;;1514066;78;1402;-72
2024/03/07 02:45:45;;;;;;;;;;;20.00;55.70;;;;;;1504985;78;778;-72
2024/03/07 02:47:47;;;;;;;;;;;19.90;55.70;;;;;;1516176;78;777;-71
2024/03/07 02:49:49;;;;;;;;;;;20.00;55.70;;;;;;1506394;77;748;-71
2024/03/07 02:51:51;;;;;;;;;;;20.00;55.70;;;;;;1512551;77;1250;-74
2024/03/07 02:53:53;;;;;;;;;;;20.00;55.70;;;;;;1517732;77;665;-72
2024/03/07 02:55:55;;;;;;;;;;;20.00;55.70;;;;;;1522363;78;1945;-72
2024/03/07 02:57:58;;;;;;;;;;;20.00;55.70;;;;;;1501855;77;1453;-72
2024/03/07 03:00:00;;;;;;;;;;;20.00;55.70;;;;;;1504282;78;606;-73
2024/03/07 03:02:02;;;;;;;;;;;20.00;55.70;;;;;;1519704;78;1110;-72
2024/03/07 03:04:04;;;;;;;;;;;20.00;55.70;;;;;;1506848;78;650;-71
2024/03/07 03:06:08;;;;;;;;;;;20.00;55.70;;;;;;1513533;77;624;-71
2024/03/07 03:08:10;;;;;;;;;;;20.00;55.70;;;;;;1515218;78;668;-72
2024/03/07 03:10:14;;;;;;;;;;;20.00;55.70;;;;;;1512065;78;667;-72
2024/03/07 03:12:15;;;;;;;;;;;20.10;55.70;;;;;;1510665;78;1644;-71
2024/03/07 03:14:17;;;;;;;;;;;20.00;55.60;;;;;;1522162;78;814;-73
2024/03/07 03:16:20;;;;;;;;;;;20.10;55.70;;;;;;1516742;78;1918;-72
2024/03/07 03:18:25;;;;;;;;;;;20.00;55.50;;;;;;1511488;78;746;-70
2024/03/07 03:20:38;;;;;;;;;;;20.00;55.60;;;;;;1514490;78;808;-71
2024/03/07 03:22:30;;;;;;;;;;;20.00;55.50;;;;;;1499868;78;1612;-72
2024/03/07 03:24:32;;;;;;;;;;;20.00;55.60;;;;;;1509476;78;1490;-71
2024/03/07 03:26:34;;;;;;;;;;;20.00;55.50;;;;;;1516408;78;779;-70
2024/03/07 03:28:36;;;;;;;;;;;20.00;55.60;;;;;;1517204;78;594;-73
2024/03/07 03:30:38;;;;;;;;;;;20.00;55.50;;;;;;1514564;77;717;-72
2024/03/07 03:32:41;;;;;;;;;;;20.00;55.50;;;;;;1512558;78;1122;-72
2024/03/07 03:34:42;;;;;;;;;;;20.00;55.50;;;;;;1500555;78;1937;-72
2024/03/07 03:36:44;;;;;;;;;;;20.00;55.50;;;;;;1512526;78;821;-72
2024/03/07 03:38:46;;;;;;;;;;;20.00;55.50;;;;;;1507554;78;1574;-71
2024/03/07 03:40:48;;;;;;;;;;;20.00;55.50;;;;;;1508184;78;818;-71
2024/03/07 03:42:50;;;;;;;;;;;20.00;55.50;;;;;;1513667;76;1052;-73
2024/03/07 03:44:53;;;;;;;;;;;20.00;55.50;;;;;;1505740;78;747;-73
2024/03/07 03:46:54;;;;;;;;;;;20.10;55.60;;;;;;1512586;78;687;-70
2024/03/07 03:48:56;;;;;;;;;;;20.00;55.50;;;;;;1511644;78;618;-73
2024/03/07 03:50:58;;;;;;;;;;;20.00;55.40;;;;;;1511843;78;815;-72
2024/03/07 03:53:01;;;;;;;;;;;20.00;55.40;;;;;;1507172;78;1606;-74
2024/03/07 03:55:09;;;;;;;;;;;20.00;55.40;;;;;;1510169;78;1918;-70
2024/03/07 03:57:07;;;;;;;;;;;20.00;55.40;;;;;;1508157;78;1516;-71
2024/03/07 03:59:09;;;;;;;;;;;20.00;55.30;;;;;;1515367;78;750;-71
2024/03/07 04:01:14;;;;;;;;;;;20.00;55.40;;;;;;1514770;77;1148;-72
2024/03/07 04:03:14;;;;;;;;;;;20.00;55.30;;;;;;1510158;78;1732;-73
2024/03/07 04:05:17;;;;;;;;;;;20.00;55.30;;;;;;1512323;78;806;-72
2024/03/07 04:07:19;;;;;;;;;;;20.00;55.40;;;;;;1512967;78;1521;-71
2024/03/07 04:09:21;;;;;;;;;;;20.00;55.40;;;;;;1509326;78;699;-72
2024/03/07 04:11:23;;;;;;;;;;;20.00;55.30;;;;;;1518868;78;1113;-69
2024/03/07 04:13:25;;;;;;;;;;;20.00;55.30;;;;;;1507779;78;677;-74
2024/03/07 04:15:30;;;;;;;;;;;20.00;55.30;;;;;;1508169;77;1912;-73
2024/03/07 04:17:31;;;;;;;;;;;20.00;55.20;;;;;;1510702;77;1700;-71
2024/03/07 04:19:35;;;;;;;;;;;20.00;55.20;;;;;;1514220;78;921;-69
2024/03/07 04:21:37;;;;;;;;;;;20.00;55.30;;;;;;1508244;78;1571;-72
2024/03/07 04:23:40;;;;;;;;;;;20.00;55.30;;;;;;1510508;78;666;-72
2024/03/07 04:25:44;;;;;;;;;;;20.00;55.20;;;;;;1514170;78;827;-74
2024/03/07 04:27:45;;;;;;;;;;;19.90;55.20;;;;;;1520237;78;812;-72
2024/03/07 04:29:47;;;;;;;;;;;20.00;55.30;;;;;;1503688;78;683;-73
2024/03/07 04:31:50;;;;;;;;;;;20.00;55.20;;;;;;1520146;78;1166;-72
2024/03/07 04:33:52;;;;;;;;;;;20.00;55.20;;;;;;1512707;78;831;-72
2024/03/07 04:35:54;;;;;;;;;;;20.00;55.20;;;;;;1504796;78;1919;-71
2024/03/07 04:37:56;;;;;;;;;;;20.00;55.20;;;;;;1512601;78;692;-71
2024/03/07 04:39:57;;;;;;;;;;;20.00;55.20;;;;;;1510496;77;729;-72
2024/03/07 04:42:02;;;;;;;;;;;20.00;55.20;;;;;;1509178;77;1140;-71
2024/03/07 04:44:04;;;;;;;;;;;20.00;55.20;;;;;;1506076;78;769;-70
2024/03/07 04:46:06;;;;;;;;;;;20.00;55.10;;;;;;1519342;78;660;-73
2024/03/07 04:48:08;;;;;;;;;;;20.00;55.20;;;;;;1517093;78;549;-71
2024/03/07 04:50:13;;;;;;;;;;;20.00;55.10;;;;;;1512378;78;1541;-72
2024/03/07 04:52:14;;;;;;;;;;;19.90;55.10;;;;;;1507557;78;1173;-74
2024/03/07 04:54:16;;;;;;;;;;;20.00;55.10;;;;;;1518749;78;734;-72
2024/03/07 04:56:18;;;;;;;;;;;20.00;55.10;;;;;;1511794;78;1940;-72
2024/03/07 04:58:20;;;;;;;;;;;20.00;55.00;;;;;;1517294;78;647;-72
2024/03/07 05:00:23;;;;;;;;;;;20.00;55.00;;;;;;1514040;78;630;-73
2024/03/07 05:02:25;;;;;;;;;;;20.00;55.00;;;;;;1513406;78;1151;-72
2024/03/07 05:04:29;;;;;;;;;;;20.00;55.00;;;;;;1519322;78;1339;-71
2024/03/07 05:06:33;;;;;;;;;;;19.90;55.20;;;;;;1514925;78;723;-71
2024/03/07 05:08:34;;;;;;;;;;;20.00;55.10;;;;;;1514040;78;1794;-71
2024/03/07 05:10:36;;;;;;;;;;;20.00;55.10;;;;;;1517258;78;793;-74
2024/03/07 05:12:38;;;;;;;;;;;20.00;55.10;;;;;;1518545;78;1196;-73
2024/03/07 05:14:40;;;;;;;;;;;20.00;55.00;;;;;;1521704;77;752;-71
2024/03/07 05:16:43;;;;;;;;;;;20.00;55.00;;;;;;1520483;78;1949;-73
2024/03/07 05:18:45;;;;;;;;;;;20.00;55.00;;;;;;1519250;77;1583;-74
2024/03/07 05:20:47;;;;;;;;;;;20.00;55.00;;;;;;1522174;77;671;-72
2024/03/07 05:22:53;;;;;;;;;;;20.00;55.00;;;;;;1515300;77;1151;-73
2024/03/07 05:24:53;;;;;;;;;;;20.00;55.00;;;;;;1509199;78;1255;-72
2024/03/07 05:26:56;;;;;;;;;;;19.90;55.00;;;;;;1515573;77;752;-73
2024/03/07 05:28:58;;;;;;;;;;;20.00;55.30;;;;;;1509822;77;794;-71
2024/03/07 05:31:00;;;;;;;;;;;20.00;55.40;;;;;;1517596;77;639;-75
2024/03/07 05:33:02;;;;;;;;;;;20.00;55.60;;;;;;1518649;78;1585;-70
2024/03/07 05:35:04;;;;;;;;;;;20.00;55.50;;;;;;1519788;77;717;-68
2024/03/07 05:37:07;;;;;;;;;;;20.00;55.50;;;;;;1514706;77;1925;-70
2024/03/07 05:39:10;;;;;;;;;;;20.00;55.40;;;;;;1515106;78;707;-72
2024/03/07 05:41:12;;;;;;;;;;;20.00;55.40;;;;;;1516225;78;1143;-72
2024/03/07 05:43:15;;;;;;;;;;;20.00;55.40;;;;;;1516623;78;726;-77
2024/03/07 05:45:17;;;;;;;;;;;20.00;55.40;;;;;;1512897;78;1191;-74
2024/03/07 05:47:19;;;;;;;;;;;20.00;55.40;;;;;;1510270;77;664;-74
2024/03/07 05:49:21;;;;;;;;;;;20.00;55.40;;;;;;1507462;78;712;-72
2024/03/07 05:51:23;;;;;;;;;;;20.00;55.30;;;;;;1516858;78;1147;-72
2024/03/07 05:53:25;;;;;;;;;;;20.00;55.30;;;;;;1508380;78;675;-71
2024/03/07 05:55:27;;;;;;;;;;;20.10;55.40;;;;;;1515082;78;686;-74
2024/03/07 05:57:29;;;;;;;;;;;20.00;55.20;;;;;;1508779;78;1946;-71
2024/03/07 05:59:34;;;;;;;;;;;20.00;55.20;;;;;;1508783;78;1547;-74
2024/03/07 06:01:37;;;;;;;;;;;20.00;55.20;;;;;;1507680;78;1101;-72
2024/03/07 06:03:40;;;;;;;;;;;20.00;55.20;;;;;;1513617;78;1412;-70
2024/03/07 06:05:42;;;;;;;;;;;20.00;55.20;;;;;;1514195;77;756;-71
2024/03/07 06:07:49;;;;;;;;;;;20.00;55.20;;;;;;1505748;77;710;-78
2024/03/07 06:09:48;;;;;;;;;;;20.00;54.70;;;;;;1509439;77;1533;-77
2024/03/07 06:11:50;;;;;;;;;;;20.00;54.80;;;;;;1515341;77;1149;-70
2024/03/07 06:13:52;;;;;;;;;;;20.00;54.80;;;;;;1511528;77;1463;-71
2024/03/07 06:15:53;;;;;;;;;;;20.00;54.90;;;;;;1512071;77;1928;-74
2024/03/07 06:17:55;;;;;;;;;;;20.00;54.90;;;;;;1516398;77;807;-71
2024/03/07 06:19:59;;;;;;;;;;;19.90;54.90;;;;;;1513473;78;784;-72
2024/03/07 06:22:01;;;;;;;;;;;20.00;54.90;;;;;;1514640;77;1197;-76
2024/03/07 06:24:03;;;;;;;;;;;19.90;54.80;;;;;;1514217;77;740;-72
2024/03/07 06:26:12;;;;;;;;;;;20.00;54.90;;;;;;1510963;78;752;-71
2024/03/07 06:28:11;;;;;;;;;;;20.00;54.80;;;;;;1513022;77;1685;-77
2024/03/07 06:30:13;;;;;;;;;;;20.00;54.80;;;;;;1513132;77;630;-74
2024/03/07 06:32:15;;;;;;;;;;;20.00;54.80;;;;;;1519310;77;1152;-74
2024/03/07 06:34:17;;;;;;;;;;;19.90;54.80;;;;;;1518285;77;792;-73
2024/03/07 06:36:19;;;;;;;;;;;20.00;54.80;;;;;;1513130;77;1926;-71
2024/03/07 06:38:21;;;;;;;;;;;20.00;54.80;;;;;;1511388;78;779;-74
2024/03/07 06:40:23;;;;;;;;;;;19.90;54.80;;;;;;1513301;78;702;-75
2024/03/07 06:42:25;;;;;;;;;;;20.00;54.70;;;;;;1513938;77;1643;-73
2024/03/07 06:44:27;;;;;;;;;;;20.00;54.70;;;;;;1516729;77;678;-75
2024/03/07 06:46:28;;;;;;;;;;;20.00;54.70;;;;;;1521175;77;726;-73
2024/03/07 06:48:30;;;;;;;;;;;20.00;54.70;;;;;;1519184;77;687;-73
2024/03/07 06:50:32;;;;;;;;;;;20.00;54.70;;;;;;1515485;77;704;-72
2024/03/07 06:52:35;;;;;;;;;;;19.90;54.70;;;;;;1516544;77;1147;-72
2024/03/07 06:54:36;;;;;;;;;;;19.90;54.70;;;;;;1519855;77;741;-73
2024/03/07 06:56:40;;;;;;;;;;;19.90;54.70;;;;;;1515826;77;1922;-73
2024/03/07 06:58:42;;;;;;;;;;;20.00;54.70;;;;;;1514198;77;744;-74
2024/03/07 07:00:45;;;;;;;;;;;19.90;54.70;;;;;;1511952;77;728;-74
2024/03/07 07:02:47;;;;;;;;;;;19.90;54.60;;;;;;1515092;77;1148;-73
2024/03/07 07:04:49;;;;;;;;;;;19.90;54.60;;;;;;1514228;77;712;-73
2024/03/07 07:06:52;;;;;;;;;;;19.90;54.60;;;;;;1518401;77;741;-75
2024/03/07 07:08:54;;;;;;;;;;;19.90;54.60;;;;;;1516392;77;744;-76
2024/03/07 07:10:57;;;;;;;;;;;19.90;54.60;;;;;;1520065;77;1508;-73
2024/03/07 07:12:59;;;;;;;;;;;19.90;54.50;;;;;;1518334;78;1121;-71
2024/03/07 07:15:01;;;;;;;;;;;19.90;54.50;;;;;;1515950;77;813;-74
2024/03/07 07:17:03;;;;;;;;;;;19.90;54.70;;;;;;1521113;78;2123;-67
2024/03/07 07:19:07;;;;;;;;;;;19.90;54.70;;;;;;1509328;78;787;-74
2024/03/07 07:21:10;;;;;;;;;;;20.00;54.00;;;;;;1513311;77;1683;-77
2024/03/07 07:23:13;;;;;;;;;;;19.80;54.00;;;;;;1514048;77;1761;-76
2024/03/07 07:25:15;;;;;;;;;;;19.90;54.20;;;;;;1515562;77;1544;-78
2024/03/07 07:27:18;;;;;;;;;;;19.90;54.30;;;;;;1509155;77;774;-75
2024/03/07 07:29:23;;;;;;;;;;;19.90;54.20;;;;;;1516738;77;783;-76
2024/03/07 07:31:24;;;;;;;;;;;19.90;54.20;;;;;;1517747;77;1686;-76
2024/03/07 07:33:26;;;;;;;;;;;19.90;54.30;;;;;;1518680;77;911;-75
2024/03/07 07:35:27;;;;;;;;;;;19.90;54.20;;;;;;1518958;77;909;-75
2024/03/07 07:37:29;;;;;;;;;;;19.90;54.20;;;;;;1515532;77;1940;-76
2024/03/07 07:39:31;;;;;;;;;;;19.90;54.20;;;;;;1515576;77;1573;-76
2024/03/07 07:41:33;;;;;;;;;;;19.90;54.20;;;;;;1514260;77;1135;-75
2024/03/07 07:43:35;;;;;;;;;;;19.90;54.20;;;;;;1514276;77;666;-74
2024/03/07 07:45:38;;;;;;;;;;;19.90;54.20;;;;;;1513632;77;775;-78
2024/03/07 07:47:41;;;;;;;;;;;19.90;54.20;;;;;;1520548;77;780;-74
2024/03/07 07:49:43;;;;;;;;;;;19.90;54.20;;;;;;1515522;77;735;-78
2024/03/07 07:51:45;;;;;;;;;;;19.90;54.20;;;;;;1514156;77;1611;-76
2024/03/07 07:53:47;;;;;;;;;;;19.90;54.20;;;;;;1515749;77;768;-75
2024/03/07 07:55:49;;;;;;;;;;;19.90;54.20;;;;;;1515742;77;742;-75
2024/03/07 07:57:54;;;;;;;;;;;19.90;54.20;;;;;;1516292;77;1940;-75
2024/03/07 07:59:56;;;;;;;;;;;19.90;54.20;;;;;;1518061;77;876;-75
2024/03/07 08:01:58;;;;;;;;;;;19.90;54.20;;;;;;1521150;77;1162;-76
2024/03/07 08:04:00;;;;;;;;;;;19.90;54.30;;;;;;1516879;77;646;-72
2024/03/07 08:06:03;;;;;;;;;;;19.90;54.20;;;;;;1515198;77;1474;-75
2024/03/07 08:08:06;;;;;;;;;;;19.90;54.30;;;;;;1511612;77;761;-77
2024/03/07 08:10:08;;;;;;;;;;;19.90;54.30;;;;;;1519969;77;869;-74
2024/03/07 08:12:12;;;;;;;;;;;19.90;54.30;;;;;;1520122;77;1145;-75
2024/03/07 08:14:13;;;;;;;;;;;19.90;54.30;;;;;;1515790;77;1711;-76
2024/03/07 08:16:16;;;;;;;;;;;19.90;54.30;;;;;;1513020;77;691;-78
2024/03/07 08:18:20;;;;;;;;;;;19.90;54.30;;;;;;1521169;77;1924;-75
2024/03/07 08:20:22;;;;;;;;;;;19.90;54.30;;;;;;1516559;77;1182;-77
2024/03/07 08:22:24;;;;;;;;;;;19.90;54.30;;;;;;1512726;77;1123;-75
2024/03/07 08:24:26;;;;;;;;;;;19.90;54.30;;;;;;1520391;77;680;-76
2024/03/07 08:26:28;;;;;;;;;;;19.90;54.30;;;;;;1522798;77;659;-79
2024/03/07 08:28:30;;;;;;;;;;;19.90;54.30;;;;;;1515060;77;664;-77
2024/03/07 08:30:32;;;;;;;;;;;19.90;54.20;;;;;;1517698;77;822;-73
2024/03/07 08:32:36;;;;;;;;;;;19.90;54.30;;;;;;1513888;77;1171;-73
2024/03/07 08:34:38;;;;;;;;;;;19.90;54.20;;;;;;1515857;77;1485;-73
2024/03/07 08:36:40;;;;;;;;;;;19.90;54.20;;;;;;1515544;77;1936;-74
2024/03/07 08:38:43;;;;;;;;;;;19.90;54.20;;;;;;1514885;77;626;-74
2024/03/07 08:40:45;;;;;;;;;;;19.90;54.20;;;;;;1515147;77;1034;-77
2024/03/07 08:42:47;;;;;;;;;;;19.90;54.20;;;;;;1514265;77;1161;-79
2024/03/07 08:44:49;;;;;;;;;;;20.00;54.20;;;;;;1516254;77;762;-75
2024/03/07 08:46:51;;;;;;;;;;;19.90;54.20;;;;;;1514832;77;728;-74
2024/03/07 08:48:53;;;;;;;;;;;19.90;54.20;;;;;;1509047;78;1330;-74
2024/03/07 08:50:55;;;;;;;;;;;19.90;54.20;;;;;;1517176;77;723;-74
2024/03/07 08:52:56;;;;;;;;;;;19.90;54.10;;;;;;1515070;77;1143;-76
2024/03/07 08:54:58;;;;;;;;;;;19.90;54.10;;;;;;1517036;77;676;-74
2024/03/07 08:57:00;;;;;;;;;;;19.90;54.10;;;;;;1512011;77;1946;-76
2024/03/07 08:59:02;;;;;;;;;;;19.90;54.10;;;;;;1514493;77;799;-76
2024/03/07 09:01:04;;;;;;;;;;;19.90;54.20;;;;;;1506545;77;741;-75
2024/03/07 09:03:09;;;;;;;;;;;20.00;54.10;;;;;;1512209;78;1603;-76
2024/03/07 09:05:15;;;;;;;;;;;19.90;54.10;;;;;;1510331;77;932;-77
2024/03/07 09:07:14;;;;;;;;;;;19.90;54.10;;;;;;1513387;77;1547;-78
2024/03/07 09:09:17;;;;;;;;;;;20.00;54.10;;;;;;1505971;77;728;-74
2024/03/07 09:11:19;;;;;;;;;;;19.90;54.00;;;;;;1517536;77;1108;-77
2024/03/07 09:13:22;;;;;;;;;;;19.90;54.00;;;;;;1519109;78;722;-78
2024/03/07 09:15:24;;;;;;;;;;;20.00;54.00;;;;;;1512853;77;729;-77
2024/03/07 09:17:26;;;;;;;;;;;19.90;54.00;;;;;;1507918;78;1954;-78
2024/03/07 09:19:28;;;;;;;;;;;20.00;54.00;;;;;;1507557;78;808;-75
2024/03/07 09:21:30;;;;;;;;;;;19.90;54.00;;;;;;1511322;78;1220;-77
2024/03/07 09:23:32;;;;;;;;;;;19.90;53.90;;;;;;1515359;78;725;-74
2024/03/07 09:25:34;;;;;;;;;;;20.00;54.00;;;;;;1506522;78;718;-76
2024/03/07 09:27:37;;;;;;;;;;;19.90;53.90;;;;;;1508169;77;730;-77
2024/03/07 09:29:39;;;;;;;;;;;19.90;53.90;;;;;;1518776;78;709;-76
2024/03/07 09:31:41;;;;;;;;;;;20.00;53.90;;;;;;1515315;77;1206;-76
2024/03/07 09:33:43;;;;;;;;;;;20.00;53.90;;;;;;1517528;77;778;-75
2024/03/07 09:35:45;;;;;;;;;;;20.00;53.90;;;;;;1518776;77;736;-77
2024/03/07 09:37:47;;;;;;;;;;;20.00;53.80;;;;;;1510693;78;1935;-75
2024/03/07 09:39:49;;;;;;;;;;;20.00;53.90;;;;;;1513727;77;724;-78
2024/03/07 09:41:51;;;;;;;;;;;20.00;53.80;;;;;;1513533;78;1167;-76
2024/03/07 09:43:56;;;;;;;;;;;19.90;53.80;;;;;;1513559;77;767;-75
2024/03/07 09:45:57;;;;;;;;;;;19.90;53.80;;;;;;1510492;77;1551;-75
2024/03/07 09:47:59;;;;;;;;;;;19.90;53.70;;;;;;1509069;78;665;-77
2024/03/07 09:50:01;;;;;;;;;;;19.90;53.70;;;;;;1517417;78;686;-76
2024/03/07 09:52:12;;;;;;;;;;;19.90;53.70;;;;;;1507192;77;1185;-75
2024/03/07 09:54:10;;;;;;;;;;;20.00;53.80;;;;;;1513188;77;846;-75
2024/03/07 09:56:13;;;;;;;;;;;19.90;53.70;;;;;;1520746;77;737;-75
2024/03/07 09:58:15;;;;;;;;;;;20.00;53.70;;;;;;1517273;77;1931;-78
2024/03/07 10:00:26;;;;;;;;;;;20.00;53.70;;;;;;1518562;77;843;-75
2024/03/07 10:02:20;;;;;;;;;;;19.90;53.70;;;;;;1504367;77;1155;-76
2024/03/07 10:04:30;;;;;;;;;;;19.90;53.60;;;;;;1510080;78;742;-76
2024/03/07 10:06:32;;;;;;;;;;;19.90;53.60;;;;;;1514281;78;2026;-74
2024/03/07 10:08:34;;;;;;;;;;;19.90;53.60;;;;;;1513601;78;768;-75
2024/03/07 10:10:35;;;;;;;;;;;19.90;53.60;;;;;;1511440;78;732;-76
2024/03/07 10:12:37;;;;;;;;;;;19.90;53.60;;;;;;1516204;77;1465;-75
2024/03/07 10:14:42;;;;;;;;;;;19.90;53.60;;;;;;1513737;78;798;-73
2024/03/07 10:16:44;;;;;;;;;;;19.90;53.60;;;;;;1508095;78;1455;-76
2024/03/07 10:18:46;;;;;;;;;;;20.00;53.60;;;;;;1520432;77;1936;-76
2024/03/07 10:20:48;;;;;;;;;;;19.90;53.60;;;;;;1512991;77;796;-75
2024/03/07 10:22:50;;;;;;;;;;;19.90;53.50;;;;;;1517281;77;1163;-76
2024/03/07 10:24:52;;;;;;;;;;;19.90;53.50;;;;;;1514280;77;683;-74
2024/03/07 10:26:59;;;;;;;;;;;19.90;53.20;;;;;;1514329;77;1588;-76
2024/03/07 10:28:58;;;;;;;;;;;19.90;53.20;;;;;;1510903;78;1531;-77
2024/03/07 10:31:00;;;;;;;;;;;19.90;53.20;;;;;;1489821;78;1205;-75
2024/03/07 10:33:02;;;;;;;;;;;19.90;53.30;;;;;;1498959;78;1166;-74
2024/03/07 10:35:06;;;;;;;;;;;19.90;53.30;;;;;;1507674;78;737;-74
2024/03/07 10:37:09;;;;;;;;;;;19.90;53.30;;;;;;1508081;78;1864;-75
2024/03/07 10:39:21;;;;;;;;;;;19.90;53.30;;;;;;1506109;78;1926;-76
2024/03/07 10:41:20;;;;;;;;;;;19.90;53.30;;;;;;1503170;78;1521;-77
2024/03/07 10:43:22;;;;;;;;;;;19.90;53.30;;;;;;1499149;77;716;-75
2024/03/07 10:45:26;;;;;;;;;;;19.90;53.30;;;;;;1502025;78;722;-78
2024/03/07 10:47:27;;;;;;;;;;;19.90;53.30;;;;;;1495880;77;1939;-75
2024/03/07 10:49:31;;;;;;;;;;;19.90;53.30;;;;;;1497414;78;763;-76
2024/03/07 10:51:35;;;;;;;;;;;19.90;53.30;;;;;;1502803;78;1159;-75
2024/03/07 10:53:57;;;;;;;;;;;19.90;52.30;;;;;;1510710;78;695;-77
2024/03/07 10:56:17;;;;;;;;;;;19.90;52.70;;;;;;1509233;78;1569;-77
2024/03/07 10:58:24;;;;;;;;;;;19.90;52.80;;;;;;1499262;78;1915;-76
2024/03/07 11:00:45;;;;;;;;;;;19.90;52.80;;;;;;1504617;78;1125;-77
2024/03/07 11:02:44;;;;;;;;;;;19.90;52.90;;;;;;1501525;78;1717;-74
2024/03/07 11:04:48;;;;;;;;;;;19.90;52.90;;;;;;1506778;77;1750;-76
2024/03/07 11:06:50;;;;;;;;;;;19.90;52.90;;;;;;1507722;78;698;-76
2024/03/07 11:08:52;;;;;;;;;;;19.80;52.80;;;;;;1503579;78;1534;-76
2024/03/07 11:10:54;;;;;;;;;;;19.90;53.00;;;;;;1504104;77;739;-74
2024/03/07 11:12:57;;;;;;;;;;;19.90;52.90;;;;;;1506733;77;1127;-77
2024/03/07 11:14:59;;;;;;;;;;;19.80;52.80;;;;;;1497249;78;743;-75
2024/03/07 11:17:00;;;;;;;;;;;19.90;53.00;;;;;;1500566;78;704;-78
2024/03/07 11:19:07;;;;;;;;;;;19.90;52.90;;;;;;1494920;78;1952;-77
2024/03/07 11:21:11;;;;;;;;;;;19.90;52.90;;;;;;1504470;77;1551;-78
2024/03/07 11:23:28;;;;;;;;;;;19.80;52.80;;;;;;1499737;78;1659;-77
2024/03/07 11:25:30;;;;;;;;;;;19.90;52.90;;;;;;1502350;78;854;-75
2024/03/07 11:27:32;;;;;;;;;;;19.90;53.00;;;;;;1509237;77;775;-75
2024/03/07 11:29:46;;;;;;;;;;;19.80;52.90;;;;;;1500765;78;691;-74
2024/03/07 11:31:45;;;;;;;;;;;19.90;53.00;;;;;;1496957;78;1584;-75
2024/03/07 11:33:49;;;;;;;;;;;19.90;52.90;;;;;;1483320;79;813;-74
2024/03/07 11:35:50;;;;;;;;;;;19.80;52.90;;;;;;1484565;78;1584;-76
2024/03/07 11:37:59;;;;;;;;;;;19.90;53.00;;;;;;1499162;77;1928;-75
2024/03/07 11:40:08;;;;;;;;;;;19.90;53.00;;;;;;1503218;77;660;-75
2024/03/07 11:42:06;;;;;;;;;;;19.90;53.00;;;;;;1499497;78;1730;-74
2024/03/07 11:44:08;;;;;;;;;;;19.90;52.90;;;;;;1502980;77;747;-74
2024/03/07 11:46:16;;;;;;;;;;;19.80;52.90;;;;;;1505380;77;679;-74
2024/03/07 11:48:19;;;;;;;;;;;19.90;52.90;;;;;;1499477;78;1663;-75
2024/03/07 11:50:19;;;;;;;;;;;19.90;53.00;;;;;;1495632;78;1703;-75
2024/03/07 11:52:21;;;;;;;;;;;19.80;52.80;;;;;;1509175;78;1491;-78
2024/03/07 11:54:27;;;;;;;;;;;19.90;52.80;;;;;;1502448;78;729;-72
2024/03/07 11:56:28;;;;;;;;;;;19.90;52.90;;;;;;1500572;78;1728;-74
2024/03/07 11:58:31;;;;;;;;;;;19.90;52.90;;;;;;1497979;78;1910;-74
2024/03/07 12:00:34;;;;;;;;;;;19.90;52.90;;;;;;1508582;78;2129;-75
2024/03/07 12:02:38;;;;;;;;;;;19.90;52.90;;;;;;1499060;78;1144;-75
2024/03/07 12:04:40;;;;;;;;;;;19.80;52.80;;;;;;1501941;77;889;-74
2024/03/07 12:06:43;;;;;;;;;;;19.90;52.90;;;;;;1507851;77;1545;-76
2024/03/07 12:08:45;;;;;;;;;;;19.90;52.90;;;;;;1502141;77;1833;-75